sensor_id;sensor_type;location;lat;lon;timestamp;P1;durP1;ratioP1;P2;durP2;ratioP2
71343;SDS011;59146;43.850;25.948;2022-10-31T00:00:26;17.05;;;7.82;;
71343;SDS011;59146;43.850;25.948;2022-10-31T00:02:51;10.95;;;7.55;;
71343;SDS011;59146;43.850;25.948;2022-10-31T00:05:17;15.02;;;8.00;;
71343;SDS011;59146;43.850;25.948;2022-10-31T00:07:42;14.82;;;7.97;;
71343;SDS011;59146;43.850;25.948;2022-10-31T00:10:08;16.17;;;7.97;;
71343;SDS011;59146;43.850;25.948;2022-10-31T00:12:33;13.48;;;7.68;;
71343;SDS011;59146;43.850;25.948;2022-10-31T00:14:59;20.70;;;8.55;;
71343;SDS011;59146;43.850;25.948;2022-10-31T00:17:24;13.40;;;7.63;;
71343;SDS011;59146;43.850;25.948;2022-10-31T00:19:50;18.80;;;7.82;;
71343;SDS011;59146;43.850;25.948;2022-10-31T00:22:15;11.18;;;7.40;;
71343;SDS011;59146;43.850;25.948;2022-10-31T00:24:40;13.68;;;7.72;;
71343;SDS011;59146;43.850;25.948;2022-10-31T00:27:06;21.27;;;8.25;;
71343;SDS011;59146;43.850;25.948;2022-10-31T00:29:31;17.60;;;7.53;;
71343;SDS011;59146;43.850;25.948;2022-10-31T00:31:57;15.25;;;7.47;;
71343;SDS011;59146;43.850;25.948;2022-10-31T00:34:22;12.95;;;7.45;;
71343;SDS011;59146;43.850;25.948;2022-10-31T00:36:47;26.13;;;7.30;;
71343;SDS011;59146;43.850;25.948;2022-10-31T00:39:13;14.38;;;7.55;;
71343;SDS011;59146;43.850;25.948;2022-10-31T00:41:38;13.02;;;7.90;;
71343;SDS011;59146;43.850;25.948;2022-10-31T00:44:04;21.08;;;7.72;;
71343;SDS011;59146;43.850;25.948;2022-10-31T00:46:29;20.58;;;8.20;;
71343;SDS011;59146;43.850;25.948;2022-10-31T00:48:54;21.00;;;9.07;;
71343;SDS011;59146;43.850;25.948;2022-10-31T00:51:20;17.08;;;9.27;;
71343;SDS011;59146;43.850;25.948;2022-10-31T00:53:45;28.30;;;15.38;;
71343;SDS011;59146;43.850;25.948;2022-10-31T00:56:11;16.45;;;9.43;;
71343;SDS011;59146;43.850;25.948;2022-10-31T00:58:36;13.55;;;7.93;;
71343;SDS011;59146;43.850;25.948;2022-10-31T01:01:02;16.77;;;7.93;;
71343;SDS011;59146;43.850;25.948;2022-10-31T01:03:29;12.43;;;7.72;;
71343;SDS011;59146;43.850;25.948;2022-10-31T01:08:26;12.20;;;8.00;;
71343;SDS011;59146;43.850;25.948;2022-10-31T01:13:35;12.25;;;7.28;;
71343;SDS011;59146;43.850;25.948;2022-10-31T01:16:01;19.30;;;8.15;;
71343;SDS011;59146;43.850;25.948;2022-10-31T01:18:28;19.48;;;7.15;;
71343;SDS011;59146;43.850;25.948;2022-10-31T01:20:57;13.43;;;8.43;;
71343;SDS011;59146;43.850;25.948;2022-10-31T01:23:24;11.20;;;7.35;;
71343;SDS011;59146;43.850;25.948;2022-10-31T01:25:58;13.90;;;7.38;;
71343;SDS011;59146;43.850;25.948;2022-10-31T01:30:59;15.73;;;7.25;;
71343;SDS011;59146;43.850;25.948;2022-10-31T01:33:26;20.20;;;7.07;;
71343;SDS011;59146;43.850;25.948;2022-10-31T01:35:51;17.73;;;6.90;;
71343;SDS011;59146;43.850;25.948;2022-10-31T01:38:17;13.85;;;7.20;;
71343;SDS011;59146;43.850;25.948;2022-10-31T01:40:42;17.67;;;7.88;;
71343;SDS011;59146;43.850;25.948;2022-10-31T01:43:14;11.90;;;7.60;;
71343;SDS011;59146;43.850;25.948;2022-10-31T01:45:40;14.00;;;7.32;;
71343;SDS011;59146;43.850;25.948;2022-10-31T01:48:15;15.68;;;8.63;;
71343;SDS011;59146;43.850;25.948;2022-10-31T01:50:43;11.02;;;7.90;;
71343;SDS011;59146;43.850;25.948;2022-10-31T01:53:12;13.30;;;8.13;;
71343;SDS011;59146;43.850;25.948;2022-10-31T01:55:41;14.90;;;8.55;;
71343;SDS011;59146;43.850;25.948;2022-10-31T02:00:48;12.68;;;8.45;;
71343;SDS011;59146;43.850;25.948;2022-10-31T02:03:16;14.90;;;8.48;;
71343;SDS011;59146;43.850;25.948;2022-10-31T02:05:45;21.00;;;8.95;;
71343;SDS011;59146;43.850;25.948;2022-10-31T02:10:48;18.65;;;7.70;;
71343;SDS011;59146;43.850;25.948;2022-10-31T02:13:14;15.77;;;9.10;;
71343;SDS011;59146;43.850;25.948;2022-10-31T02:15:40;13.52;;;8.75;;
71343;SDS011;59146;43.850;25.948;2022-10-31T02:18:09;15.55;;;8.70;;
71343;SDS011;59146;43.850;25.948;2022-10-31T02:26:43;24.52;;;8.75;;
71343;SDS011;59146;43.850;25.948;2022-10-31T02:29:25;15.75;;;9.18;;
71343;SDS011;59146;43.850;25.948;2022-10-31T02:32:09;18.98;;;8.90;;
71343;SDS011;59146;43.850;25.948;2022-10-31T02:40:22;21.30;;;9.65;;
71343;SDS011;59146;43.850;25.948;2022-10-31T02:43:11;22.02;;;10.18;;
71343;SDS011;59146;43.850;25.948;2022-10-31T02:45:56;17.25;;;9.25;;
71343;SDS011;59146;43.850;25.948;2022-10-31T02:48:28;16.98;;;10.07;;
71343;SDS011;59146;43.850;25.948;2022-10-31T02:50:59;15.45;;;9.38;;
71343;SDS011;59146;43.850;25.948;2022-10-31T02:53:30;20.73;;;10.15;;
71343;SDS011;59146;43.850;25.948;2022-10-31T02:55:59;16.40;;;10.13;;
71343;SDS011;59146;43.850;25.948;2022-10-31T02:58:29;27.48;;;11.52;;
71343;SDS011;59146;43.850;25.948;2022-10-31T03:06:14;22.73;;;9.57;;
71343;SDS011;59146;43.850;25.948;2022-10-31T03:09:03;15.50;;;10.02;;
71343;SDS011;59146;43.850;25.948;2022-10-31T03:12:07;18.40;;;8.88;;
71343;SDS011;59146;43.850;25.948;2022-10-31T03:14:42;24.52;;;10.52;;
71343;SDS011;59146;43.850;25.948;2022-10-31T03:17:19;18.70;;;9.70;;
71343;SDS011;59146;43.850;25.948;2022-10-31T03:19:50;17.13;;;9.88;;
71343;SDS011;59146;43.850;25.948;2022-10-31T03:22:20;29.67;;;10.98;;
71343;SDS011;59146;43.850;25.948;2022-10-31T03:24:48;15.77;;;9.50;;
71343;SDS011;59146;43.850;25.948;2022-10-31T03:27:17;23.00;;;10.25;;
71343;SDS011;59146;43.850;25.948;2022-10-31T03:29:46;18.00;;;9.65;;
71343;SDS011;59146;43.850;25.948;2022-10-31T03:32:17;23.02;;;9.93;;
71343;SDS011;59146;43.850;25.948;2022-10-31T03:34:46;23.08;;;10.20;;
71343;SDS011;59146;43.850;25.948;2022-10-31T03:37:15;21.92;;;9.27;;
71343;SDS011;59146;43.850;25.948;2022-10-31T03:39:44;17.95;;;10.40;;
71343;SDS011;59146;43.850;25.948;2022-10-31T03:42:13;20.73;;;9.98;;
71343;SDS011;59146;43.850;25.948;2022-10-31T03:44:42;20.70;;;10.63;;
71343;SDS011;59146;43.850;25.948;2022-10-31T03:47:12;25.23;;;10.63;;
71343;SDS011;59146;43.850;25.948;2022-10-31T03:49:38;20.02;;;10.60;;
71343;SDS011;59146;43.850;25.948;2022-10-31T03:52:15;27.20;;;10.93;;
71343;SDS011;59146;43.850;25.948;2022-10-31T03:54:46;22.00;;;11.27;;
71343;SDS011;59146;43.850;25.948;2022-10-31T03:57:41;20.58;;;10.45;;
71343;SDS011;59146;43.850;25.948;2022-10-31T04:00:13;16.25;;;9.77;;
71343;SDS011;59146;43.850;25.948;2022-10-31T04:02:42;19.33;;;9.82;;
71343;SDS011;59146;43.850;25.948;2022-10-31T04:05:12;19.85;;;11.27;;
71343;SDS011;59146;43.850;25.948;2022-10-31T04:07:41;26.77;;;13.23;;
71343;SDS011;59146;43.850;25.948;2022-10-31T04:10:11;19.02;;;11.07;;
71343;SDS011;59146;43.850;25.948;2022-10-31T04:12:39;24.50;;;11.43;;
71343;SDS011;59146;43.850;25.948;2022-10-31T04:15:07;20.02;;;11.00;;
71343;SDS011;59146;43.850;25.948;2022-10-31T04:17:35;25.25;;;11.43;;
71343;SDS011;59146;43.850;25.948;2022-10-31T04:20:04;16.48;;;10.52;;
71343;SDS011;59146;43.850;25.948;2022-10-31T04:22:30;19.88;;;10.75;;
71343;SDS011;59146;43.850;25.948;2022-10-31T04:24:55;19.42;;;10.80;;
71343;SDS011;59146;43.850;25.948;2022-10-31T04:27:21;27.05;;;10.85;;
71343;SDS011;59146;43.850;25.948;2022-10-31T04:29:46;21.08;;;10.32;;
71343;SDS011;59146;43.850;25.948;2022-10-31T04:32:11;18.42;;;10.18;;
71343;SDS011;59146;43.850;25.948;2022-10-31T04:34:37;21.98;;;11.48;;
71343;SDS011;59146;43.850;25.948;2022-10-31T04:37:02;24.95;;;12.30;;
71343;SDS011;59146;43.850;25.948;2022-10-31T04:39:28;17.45;;;11.45;;
71343;SDS011;59146;43.850;25.948;2022-10-31T04:41:53;22.50;;;12.10;;
71343;SDS011;59146;43.850;25.948;2022-10-31T04:44:19;26.33;;;12.35;;
71343;SDS011;59146;43.850;25.948;2022-10-31T04:46:44;26.40;;;13.25;;
71343;SDS011;59146;43.850;25.948;2022-10-31T04:49:09;23.38;;;11.75;;
71343;SDS011;59146;43.850;25.948;2022-10-31T04:51:35;25.30;;;13.18;;
71343;SDS011;59146;43.850;25.948;2022-10-31T04:54:00;23.73;;;12.88;;
71343;SDS011;59146;43.850;25.948;2022-10-31T04:56:26;21.75;;;13.48;;
71343;SDS011;59146;43.850;25.948;2022-10-31T04:58:51;21.90;;;12.77;;
71343;SDS011;59146;43.850;25.948;2022-10-31T05:01:17;29.70;;;13.50;;
71343;SDS011;59146;43.850;25.948;2022-10-31T05:03:42;22.20;;;12.95;;
71343;SDS011;59146;43.850;25.948;2022-10-31T05:06:08;22.30;;;11.48;;
71343;SDS011;59146;43.850;25.948;2022-10-31T05:08:33;21.10;;;12.38;;
71343;SDS011;59146;43.850;25.948;2022-10-31T05:10:59;21.35;;;11.52;;
71343;SDS011;59146;43.850;25.948;2022-10-31T05:13:28;31.35;;;13.00;;
71343;SDS011;59146;43.850;25.948;2022-10-31T05:15:54;28.67;;;11.73;;
71343;SDS011;59146;43.850;25.948;2022-10-31T05:18:19;22.10;;;13.05;;
71343;SDS011;59146;43.850;25.948;2022-10-31T05:20:45;27.40;;;12.95;;
71343;SDS011;59146;43.850;25.948;2022-10-31T05:23:10;18.92;;;11.93;;
71343;SDS011;59146;43.850;25.948;2022-10-31T05:25:36;24.88;;;13.75;;
71343;SDS011;59146;43.850;25.948;2022-10-31T05:28:01;21.05;;;12.30;;
71343;SDS011;59146;43.850;25.948;2022-10-31T05:30:28;23.40;;;11.18;;
71343;SDS011;59146;43.850;25.948;2022-10-31T05:32:55;25.17;;;12.20;;
71343;SDS011;59146;43.850;25.948;2022-10-31T05:35:22;29.20;;;13.25;;
71343;SDS011;59146;43.850;25.948;2022-10-31T05:37:52;20.00;;;11.95;;
71343;SDS011;59146;43.850;25.948;2022-10-31T05:40:18;22.80;;;13.50;;
71343;SDS011;59146;43.850;25.948;2022-10-31T05:42:45;20.92;;;11.82;;
71343;SDS011;59146;43.850;25.948;2022-10-31T05:45:12;25.08;;;12.32;;
71343;SDS011;59146;43.850;25.948;2022-10-31T05:47:39;21.23;;;11.30;;
71343;SDS011;59146;43.850;25.948;2022-10-31T05:50:06;30.70;;;13.55;;
71343;SDS011;59146;43.850;25.948;2022-10-31T05:52:33;24.90;;;12.55;;
71343;SDS011;59146;43.850;25.948;2022-10-31T05:54:58;28.98;;;13.32;;
71343;SDS011;59146;43.850;25.948;2022-10-31T05:57:24;30.08;;;12.65;;
71343;SDS011;59146;43.850;25.948;2022-10-31T05:59:50;42.25;;;15.27;;
71343;SDS011;59146;43.850;25.948;2022-10-31T06:02:18;24.67;;;13.15;;
71343;SDS011;59146;43.850;25.948;2022-10-31T06:04:44;35.97;;;14.02;;
71343;SDS011;59146;43.850;25.948;2022-10-31T06:07:09;31.63;;;14.43;;
71343;SDS011;59146;43.850;25.948;2022-10-31T06:09:34;32.67;;;13.98;;
71343;SDS011;59146;43.850;25.948;2022-10-31T06:12:00;41.50;;;13.90;;
71343;SDS011;59146;43.850;25.948;2022-10-31T06:14:26;43.85;;;13.80;;
71343;SDS011;59146;43.850;25.948;2022-10-31T06:16:51;31.75;;;13.63;;
71343;SDS011;59146;43.850;25.948;2022-10-31T06:19:17;27.67;;;13.10;;
71343;SDS011;59146;43.850;25.948;2022-10-31T06:21:42;29.90;;;13.77;;
71343;SDS011;59146;43.850;25.948;2022-10-31T06:24:07;24.42;;;14.10;;
71343;SDS011;59146;43.850;25.948;2022-10-31T06:26:33;33.13;;;13.10;;
71343;SDS011;59146;43.850;25.948;2022-10-31T06:28:58;43.50;;;12.88;;
71343;SDS011;59146;43.850;25.948;2022-10-31T06:31:24;20.63;;;11.93;;
71343;SDS011;59146;43.850;25.948;2022-10-31T06:33:49;28.73;;;12.18;;
71343;SDS011;59146;43.850;25.948;2022-10-31T06:36:14;19.13;;;11.27;;
71343;SDS011;59146;43.850;25.948;2022-10-31T06:38:40;18.23;;;11.75;;
71343;SDS011;59146;43.850;25.948;2022-10-31T06:41:05;23.85;;;12.32;;
71343;SDS011;59146;43.850;25.948;2022-10-31T06:43:31;26.15;;;12.23;;
71343;SDS011;59146;43.850;25.948;2022-10-31T06:45:57;26.70;;;13.00;;
71343;SDS011;59146;43.850;25.948;2022-10-31T06:48:27;25.15;;;12.88;;
71343;SDS011;59146;43.850;25.948;2022-10-31T06:50:52;23.23;;;13.20;;
71343;SDS011;59146;43.850;25.948;2022-10-31T06:53:18;30.95;;;12.93;;
71343;SDS011;59146;43.850;25.948;2022-10-31T06:55:43;26.90;;;14.05;;
71343;SDS011;59146;43.850;25.948;2022-10-31T06:58:09;33.22;;;14.57;;
71343;SDS011;59146;43.850;25.948;2022-10-31T07:00:35;35.08;;;14.95;;
71343;SDS011;59146;43.850;25.948;2022-10-31T07:03:02;32.63;;;14.82;;
71343;SDS011;59146;43.850;25.948;2022-10-31T07:05:29;25.73;;;15.43;;
71343;SDS011;59146;43.850;25.948;2022-10-31T07:07:56;30.98;;;14.65;;
71343;SDS011;59146;43.850;25.948;2022-10-31T07:10:23;37.60;;;15.90;;
71343;SDS011;59146;43.850;25.948;2022-10-31T07:12:54;25.45;;;15.07;;
71343;SDS011;59146;43.850;25.948;2022-10-31T07:15:21;29.75;;;16.02;;
71343;SDS011;59146;43.850;25.948;2022-10-31T07:17:47;38.55;;;16.75;;
71343;SDS011;59146;43.850;25.948;2022-10-31T07:20:12;34.85;;;16.80;;
71343;SDS011;59146;43.850;25.948;2022-10-31T07:22:38;28.75;;;17.63;;
71343;SDS011;59146;43.850;25.948;2022-10-31T07:25:04;28.50;;;16.15;;
71343;SDS011;59146;43.850;25.948;2022-10-31T07:27:35;31.35;;;16.63;;
71343;SDS011;59146;43.850;25.948;2022-10-31T07:30:04;33.05;;;17.10;;
71343;SDS011;59146;43.850;25.948;2022-10-31T07:35:09;27.38;;;16.85;;
71343;SDS011;59146;43.850;25.948;2022-10-31T07:37:36;30.23;;;16.95;;
71343;SDS011;59146;43.850;25.948;2022-10-31T07:40:05;28.13;;;16.70;;
71343;SDS011;59146;43.850;25.948;2022-10-31T07:42:42;29.13;;;16.87;;
71343;SDS011;59146;43.850;25.948;2022-10-31T07:45:12;27.08;;;17.05;;
71343;SDS011;59146;43.850;25.948;2022-10-31T07:47:40;31.55;;;16.13;;
71343;SDS011;59146;43.850;25.948;2022-10-31T07:50:11;29.10;;;17.13;;
71343;SDS011;59146;43.850;25.948;2022-10-31T07:52:44;27.55;;;16.77;;
71343;SDS011;59146;43.850;25.948;2022-10-31T07:55:10;25.02;;;15.95;;
71343;SDS011;59146;43.850;25.948;2022-10-31T07:57:36;29.42;;;16.20;;
71343;SDS011;59146;43.850;25.948;2022-10-31T08:00:05;45.97;;;16.80;;
71343;SDS011;59146;43.850;25.948;2022-10-31T08:02:33;33.92;;;18.77;;
71343;SDS011;59146;43.850;25.948;2022-10-31T08:04:59;27.15;;;15.52;;
71343;SDS011;59146;43.850;25.948;2022-10-31T08:07:26;21.55;;;15.30;;
71343;SDS011;59146;43.850;25.948;2022-10-31T08:09:53;24.75;;;15.38;;
71343;SDS011;59146;43.850;25.948;2022-10-31T08:12:18;28.02;;;15.77;;
71343;SDS011;59146;43.850;25.948;2022-10-31T08:14:44;26.77;;;16.00;;
71343;SDS011;59146;43.850;25.948;2022-10-31T08:17:09;35.35;;;15.88;;
71343;SDS011;59146;43.850;25.948;2022-10-31T08:19:35;31.65;;;15.98;;
71343;SDS011;59146;43.850;25.948;2022-10-31T08:22:00;37.13;;;17.20;;
71343;SDS011;59146;43.850;25.948;2022-10-31T08:24:26;41.83;;;17.67;;
71343;SDS011;59146;43.850;25.948;2022-10-31T08:26:51;34.17;;;19.00;;
71343;SDS011;59146;43.850;25.948;2022-10-31T08:29:17;34.35;;;18.08;;
71343;SDS011;59146;43.850;25.948;2022-10-31T08:31:42;35.53;;;18.23;;
71343;SDS011;59146;43.850;25.948;2022-10-31T08:34:08;41.42;;;21.27;;
71343;SDS011;59146;43.850;25.948;2022-10-31T08:36:34;57.03;;;26.83;;
71343;SDS011;59146;43.850;25.948;2022-10-31T08:38:59;37.45;;;21.60;;
71343;SDS011;59146;43.850;25.948;2022-10-31T08:41:25;32.92;;;20.13;;
71343;SDS011;59146;43.850;25.948;2022-10-31T08:43:50;37.83;;;21.08;;
71343;SDS011;59146;43.850;25.948;2022-10-31T08:46:16;32.10;;;19.67;;
71343;SDS011;59146;43.850;25.948;2022-10-31T08:48:41;31.98;;;19.90;;
71343;SDS011;59146;43.850;25.948;2022-10-31T08:51:07;32.10;;;21.02;;
71343;SDS011;59146;43.850;25.948;2022-10-31T08:53:34;42.30;;;19.38;;
71343;SDS011;59146;43.850;25.948;2022-10-31T08:55:59;34.30;;;18.33;;
71343;SDS011;59146;43.850;25.948;2022-10-31T08:58:25;33.22;;;17.30;;
71343;SDS011;59146;43.850;25.948;2022-10-31T09:00:51;33.58;;;17.85;;
71343;SDS011;59146;43.850;25.948;2022-10-31T09:03:19;35.10;;;19.40;;
71343;SDS011;59146;43.850;25.948;2022-10-31T09:05:47;36.45;;;18.77;;
71343;SDS011;59146;43.850;25.948;2022-10-31T09:08:12;28.52;;;18.63;;
71343;SDS011;59146;43.850;25.948;2022-10-31T09:10:39;36.03;;;17.23;;
71343;SDS011;59146;43.850;25.948;2022-10-31T09:13:06;28.83;;;17.73;;
71343;SDS011;59146;43.850;25.948;2022-10-31T09:15:35;33.65;;;17.13;;
71343;SDS011;59146;43.850;25.948;2022-10-31T09:18:03;36.92;;;17.60;;
71343;SDS011;59146;43.850;25.948;2022-10-31T09:20:30;28.48;;;17.08;;
71343;SDS011;59146;43.850;25.948;2022-10-31T09:22:56;30.20;;;16.20;;
71343;SDS011;59146;43.850;25.948;2022-10-31T09:25:23;28.17;;;16.20;;
71343;SDS011;59146;43.850;25.948;2022-10-31T09:27:48;33.40;;;16.45;;
71343;SDS011;59146;43.850;25.948;2022-10-31T09:30:14;25.50;;;14.40;;
71343;SDS011;59146;43.850;25.948;2022-10-31T09:32:39;30.25;;;15.52;;
71343;SDS011;59146;43.850;25.948;2022-10-31T09:35:05;25.00;;;14.82;;
71343;SDS011;59146;43.850;25.948;2022-10-31T09:37:30;29.48;;;14.25;;
71343;SDS011;59146;43.850;25.948;2022-10-31T09:39:56;30.40;;;14.13;;
71343;SDS011;59146;43.850;25.948;2022-10-31T09:45:11;21.73;;;14.32;;
71343;SDS011;59146;43.850;25.948;2022-10-31T09:50:22;26.73;;;13.38;;
71343;SDS011;59146;43.850;25.948;2022-10-31T09:53:00;29.98;;;14.63;;
71343;SDS011;59146;43.850;25.948;2022-10-31T09:55:47;26.17;;;14.00;;
71343;SDS011;59146;43.850;25.948;2022-10-31T09:58:15;29.98;;;13.25;;
71343;SDS011;59146;43.850;25.948;2022-10-31T10:00:43;20.60;;;12.73;;
71343;SDS011;59146;43.850;25.948;2022-10-31T10:03:13;30.98;;;13.27;;
71343;SDS011;59146;43.850;25.948;2022-10-31T10:05:51;25.48;;;13.07;;
71343;SDS011;59146;43.850;25.948;2022-10-31T10:08:23;25.90;;;13.02;;
71343;SDS011;59146;43.850;25.948;2022-10-31T10:13:40;24.75;;;14.18;;
71343;SDS011;59146;43.850;25.948;2022-10-31T10:30:02;34.53;;;12.95;;
71343;SDS011;59146;43.850;25.948;2022-10-31T10:32:43;19.88;;;12.35;;
71343;SDS011;59146;43.850;25.948;2022-10-31T10:37:48;22.00;;;11.07;;
71343;SDS011;59146;43.850;25.948;2022-10-31T10:40:18;19.35;;;10.88;;
71343;SDS011;59146;43.850;25.948;2022-10-31T10:42:53;19.43;;;11.37;;
71343;SDS011;59146;43.850;25.948;2022-10-31T10:45:42;20.45;;;12.40;;
71343;SDS011;59146;43.850;25.948;2022-10-31T10:48:39;20.45;;;11.55;;
71343;SDS011;59146;43.850;25.948;2022-10-31T10:51:10;25.48;;;13.00;;
71343;SDS011;59146;43.850;25.948;2022-10-31T10:59:46;22.00;;;12.65;;
71343;SDS011;59146;43.850;25.948;2022-10-31T11:02:19;28.40;;;11.80;;
71343;SDS011;59146;43.850;25.948;2022-10-31T11:05:09;21.35;;;11.40;;
71343;SDS011;59146;43.850;25.948;2022-10-31T11:07:43;25.75;;;11.15;;
71343;SDS011;59146;43.850;25.948;2022-10-31T11:10:12;24.02;;;11.40;;
71343;SDS011;59146;43.850;25.948;2022-10-31T11:12:42;20.95;;;11.50;;
71343;SDS011;59146;43.850;25.948;2022-10-31T11:15:20;23.27;;;10.57;;
71343;SDS011;59146;43.850;25.948;2022-10-31T11:17:52;21.52;;;10.88;;
71343;SDS011;59146;43.850;25.948;2022-10-31T11:20:26;28.45;;;10.98;;
71343;SDS011;59146;43.850;25.948;2022-10-31T11:23:15;25.80;;;10.95;;
71343;SDS011;59146;43.850;25.948;2022-10-31T11:25:47;25.20;;;11.38;;
71343;SDS011;59146;43.850;25.948;2022-10-31T11:28:19;22.17;;;11.82;;
71343;SDS011;59146;43.850;25.948;2022-10-31T11:30:51;20.85;;;10.60;;
71343;SDS011;59146;43.850;25.948;2022-10-31T11:35:57;25.35;;;10.13;;
71343;SDS011;59146;43.850;25.948;2022-10-31T11:38:46;20.02;;;10.30;;
71343;SDS011;59146;43.850;25.948;2022-10-31T11:41:17;20.55;;;9.52;;
71343;SDS011;59146;43.850;25.948;2022-10-31T11:43:50;18.80;;;9.18;;
71343;SDS011;59146;43.850;25.948;2022-10-31T11:46:43;17.67;;;9.43;;
71343;SDS011;59146;43.850;25.948;2022-10-31T11:49:17;16.40;;;9.77;;
71343;SDS011;59146;43.850;25.948;2022-10-31T11:51:49;21.20;;;11.48;;
71343;SDS011;59146;43.850;25.948;2022-10-31T11:54:22;26.48;;;13.15;;
71343;SDS011;59146;43.850;25.948;2022-10-31T11:56:52;18.92;;;8.88;;
71343;SDS011;59146;43.850;25.948;2022-10-31T11:59:21;19.45;;;9.00;;
71343;SDS011;59146;43.850;25.948;2022-10-31T12:01:50;15.77;;;9.00;;
71343;SDS011;59146;43.850;25.948;2022-10-31T12:04:17;14.95;;;8.40;;
71343;SDS011;59146;43.850;25.948;2022-10-31T12:06:43;16.70;;;8.30;;
71343;SDS011;59146;43.850;25.948;2022-10-31T12:11:52;18.73;;;9.85;;
71343;SDS011;59146;43.850;25.948;2022-10-31T12:37:09;17.73;;;7.68;;
71343;SDS011;59146;43.850;25.948;2022-10-31T12:45:28;61.42;;;11.52;;
71343;SDS011;59146;43.850;25.948;2022-10-31T12:56:35;18.17;;;6.78;;
71343;SDS011;59146;43.850;25.948;2022-10-31T13:04:55;13.90;;;7.82;;
71343;SDS011;59146;43.850;25.948;2022-10-31T13:10:22;14.82;;;6.78;;
71343;SDS011;59146;43.850;25.948;2022-10-31T13:12:55;16.95;;;6.75;;
71343;SDS011;59146;43.850;25.948;2022-10-31T13:15:27;15.38;;;7.53;;
71343;SDS011;59146;43.850;25.948;2022-10-31T13:17:59;18.63;;;7.07;;
71343;SDS011;59146;43.850;25.948;2022-10-31T13:20:43;12.10;;;7.07;;
71343;SDS011;59146;43.850;25.948;2022-10-31T13:23:16;14.40;;;6.60;;
71343;SDS011;59146;43.850;25.948;2022-10-31T13:25:50;12.60;;;7.03;;
71343;SDS011;59146;43.850;25.948;2022-10-31T13:28:35;12.48;;;6.25;;
71343;SDS011;59146;43.850;25.948;2022-10-31T13:31:05;13.55;;;7.07;;
71343;SDS011;59146;43.850;25.948;2022-10-31T13:33:35;18.95;;;7.15;;
71343;SDS011;59146;43.850;25.948;2022-10-31T13:39:23;11.57;;;7.10;;
71343;SDS011;59146;43.850;25.948;2022-10-31T13:42:23;14.80;;;7.32;;
71343;SDS011;59146;43.850;25.948;2022-10-31T13:45:12;15.40;;;6.60;;
71343;SDS011;59146;43.850;25.948;2022-10-31T13:47:42;15.13;;;7.10;;
71343;SDS011;59146;43.850;25.948;2022-10-31T13:52:47;21.73;;;7.80;;
71343;SDS011;59146;43.850;25.948;2022-10-31T13:55:34;10.38;;;6.05;;
71343;SDS011;59146;43.850;25.948;2022-10-31T13:58:21;16.27;;;6.80;;
71343;SDS011;59146;43.850;25.948;2022-10-31T14:00:57;23.80;;;7.45;;
71343;SDS011;59146;43.850;25.948;2022-10-31T14:03:23;16.65;;;6.75;;
71343;SDS011;59146;43.850;25.948;2022-10-31T14:05:53;20.30;;;7.60;;
71343;SDS011;59146;43.850;25.948;2022-10-31T14:08:21;25.65;;;8.10;;
71343;SDS011;59146;43.850;25.948;2022-10-31T14:10:49;13.45;;;7.35;;
71343;SDS011;59146;43.850;25.948;2022-10-31T14:15:56;29.00;;;6.95;;
71343;SDS011;59146;43.850;25.948;2022-10-31T14:21:48;20.08;;;7.45;;
71343;SDS011;59146;43.850;25.948;2022-10-31T14:24:12;21.88;;;7.20;;
71343;SDS011;59146;43.850;25.948;2022-10-31T14:26:54;36.40;;;8.10;;
71343;SDS011;59146;43.850;25.948;2022-10-31T14:29:25;22.42;;;7.53;;
71343;SDS011;59146;43.850;25.948;2022-10-31T14:31:55;13.20;;;6.25;;
71343;SDS011;59146;43.850;25.948;2022-10-31T14:34:27;20.15;;;7.20;;
71343;SDS011;59146;43.850;25.948;2022-10-31T14:55:53;26.58;;;8.63;;
71343;SDS011;59146;43.850;25.948;2022-10-31T14:58:25;28.75;;;10.05;;
71343;SDS011;59146;43.850;25.948;2022-10-31T15:00:56;33.17;;;12.25;;
71343;SDS011;59146;43.850;25.948;2022-10-31T15:03:57;43.30;;;11.63;;
71343;SDS011;59146;43.850;25.948;2022-10-31T15:06:15;22.13;;;10.30;;
71343;SDS011;59146;43.850;25.948;2022-10-31T15:08:46;25.73;;;10.80;;
71343;SDS011;59146;43.850;25.948;2022-10-31T15:11:19;36.33;;;12.73;;
71343;SDS011;59146;43.850;25.948;2022-10-31T15:13:53;30.52;;;11.65;;
71343;SDS011;59146;43.850;25.948;2022-10-31T15:16:21;28.17;;;11.02;;
71343;SDS011;59146;43.850;25.948;2022-10-31T15:18:54;33.58;;;11.05;;
71343;SDS011;59146;43.850;25.948;2022-10-31T15:21:22;26.05;;;12.60;;
71343;SDS011;59146;43.850;25.948;2022-10-31T15:23:51;25.20;;;13.05;;
71343;SDS011;59146;43.850;25.948;2022-10-31T15:26:18;33.92;;;11.77;;
71343;SDS011;59146;43.850;25.948;2022-10-31T15:28:56;27.25;;;11.32;;
71343;SDS011;59146;43.850;25.948;2022-10-31T15:31:29;25.13;;;11.05;;
71343;SDS011;59146;43.850;25.948;2022-10-31T15:33:58;28.75;;;11.85;;
71343;SDS011;59146;43.850;25.948;2022-10-31T15:36:28;23.25;;;11.20;;
71343;SDS011;59146;43.850;25.948;2022-10-31T15:38:55;26.63;;;11.43;;
71343;SDS011;59146;43.850;25.948;2022-10-31T15:43:58;23.23;;;12.18;;
71343;SDS011;59146;43.850;25.948;2022-10-31T15:46:27;34.38;;;12.75;;
71343;SDS011;59146;43.850;25.948;2022-10-31T15:48:53;26.75;;;12.00;;
71343;SDS011;59146;43.850;25.948;2022-10-31T15:51:25;30.10;;;12.27;;
71343;SDS011;59146;43.850;25.948;2022-10-31T15:53:52;29.38;;;12.50;;
71343;SDS011;59146;43.850;25.948;2022-10-31T15:56:24;33.83;;;11.90;;
71343;SDS011;59146;43.850;25.948;2022-10-31T15:58:52;25.50;;;11.32;;
71343;SDS011;59146;43.850;25.948;2022-10-31T16:01:23;34.95;;;10.82;;
71343;SDS011;59146;43.850;25.948;2022-10-31T16:04:02;21.98;;;11.10;;
71343;SDS011;59146;43.850;25.948;2022-10-31T16:06:37;34.85;;;13.77;;
71343;SDS011;59146;43.850;25.948;2022-10-31T16:09:03;41.08;;;14.82;;
71343;SDS011;59146;43.850;25.948;2022-10-31T16:11:45;50.20;;;15.73;;
71343;SDS011;59146;43.850;25.948;2022-10-31T16:16:43;35.58;;;15.90;;
71343;SDS011;59146;43.850;25.948;2022-10-31T16:19:55;45.10;;;16.38;;
71343;SDS011;59146;43.850;25.948;2022-10-31T16:22:13;37.95;;;19.50;;
71343;SDS011;59146;43.850;25.948;2022-10-31T16:24:45;39.42;;;14.85;;
71343;SDS011;59146;43.850;25.948;2022-10-31T16:27:18;55.53;;;21.10;;
71343;SDS011;59146;43.850;25.948;2022-10-31T16:29:50;39.92;;;21.90;;
71343;SDS011;59146;43.850;25.948;2022-10-31T16:33:20;43.20;;;20.13;;
71343;SDS011;59146;43.850;25.948;2022-10-31T16:35:24;57.10;;;24.13;;
71343;SDS011;59146;43.850;25.948;2022-10-31T16:37:56;55.25;;;24.17;;
71343;SDS011;59146;43.850;25.948;2022-10-31T16:40:22;40.45;;;22.90;;
71343;SDS011;59146;43.850;25.948;2022-10-31T16:42:48;47.60;;;21.08;;
71343;SDS011;59146;43.850;25.948;2022-10-31T16:45:21;36.33;;;19.55;;
71343;SDS011;59146;43.850;25.948;2022-10-31T16:47:48;38.97;;;15.65;;
71343;SDS011;59146;43.850;25.948;2022-10-31T16:50:19;48.92;;;19.73;;
71343;SDS011;59146;43.850;25.948;2022-10-31T16:52:49;33.88;;;16.83;;
71343;SDS011;59146;43.850;25.948;2022-10-31T16:55:15;40.25;;;17.50;;
71343;SDS011;59146;43.850;25.948;2022-10-31T16:57:51;40.15;;;17.95;;